sensor_id;sensor_type;location;lat;lon;timestamp;temperature;humidity
9448;DHT22;4762;48.128;11.376;2022-07-17T00:00:39;15.70;67.90
9448;DHT22;4762;48.128;11.376;2022-07-17T00:02:42;15.50;67.80
9448;DHT22;4762;48.128;11.376;2022-07-17T00:04:45;15.50;68.20
9448;DHT22;4762;48.128;11.376;2022-07-17T00:06:47;15.50;68.10
9448;DHT22;4762;48.128;11.376;2022-07-17T00:08:49;15.40;69.20
9448;DHT22;4762;48.128;11.376;2022-07-17T00:10:51;15.40;69.10
9448;DHT22;4762;48.128;11.376;2022-07-17T00:12:54;15.40;68.80
9448;DHT22;4762;48.128;11.376;2022-07-17T00:14:56;15.40;69.20
9448;DHT22;4762;48.128;11.376;2022-07-17T00:16:58;15.20;69.30
9448;DHT22;4762;48.128;11.376;2022-07-17T00:19:00;15.20;69.20
9448;DHT22;4762;48.128;11.376;2022-07-17T00:21:03;15.10;69.20
9448;DHT22;4762;48.128;11.376;2022-07-17T00:23:05;15.30;69.60
9448;DHT22;4762;48.128;11.376;2022-07-17T00:25:09;15.30;69.50
9448;DHT22;4762;48.128;11.376;2022-07-17T00:27:12;15.40;68.50
9448;DHT22;4762;48.128;11.376;2022-07-17T00:29:14;15.40;68.90
9448;DHT22;4762;48.128;11.376;2022-07-17T00:31:16;15.30;69.80
9448;DHT22;4762;48.128;11.376;2022-07-17T00:33:19;15.40;69.10
9448;DHT22;4762;48.128;11.376;2022-07-17T00:35:21;15.40;69.40
9448;DHT22;4762;48.128;11.376;2022-07-17T00:37:24;15.10;70.10
9448;DHT22;4762;48.128;11.376;2022-07-17T00:39:26;15.10;70.20
9448;DHT22;4762;48.128;11.376;2022-07-17T00:41:28;15.20;70.40
9448;DHT22;4762;48.128;11.376;2022-07-17T00:43:31;15.30;69.90
9448;DHT22;4762;48.128;11.376;2022-07-17T00:45:35;15.20;70.50
9448;DHT22;4762;48.128;11.376;2022-07-17T00:49:51;15.00;71.10
9448;DHT22;4762;48.128;11.376;2022-07-17T00:51:54;15.00;71.30
9448;DHT22;4762;48.128;11.376;2022-07-17T00:53:57;15.00;71.60
9448;DHT22;4762;48.128;11.376;2022-07-17T00:56:00;14.90;71.70
9448;DHT22;4762;48.128;11.376;2022-07-17T00:58:01;15.00;71.50
9448;DHT22;4762;48.128;11.376;2022-07-17T01:00:05;14.90;71.40
9448;DHT22;4762;48.128;11.376;2022-07-17T01:02:10;14.90;71.50
9448;DHT22;4762;48.128;11.376;2022-07-17T01:04:13;15.00;71.30
9448;DHT22;4762;48.128;11.376;2022-07-17T01:06:15;15.00;71.10
9448;DHT22;4762;48.128;11.376;2022-07-17T01:08:17;14.90;71.30
9448;DHT22;4762;48.128;11.376;2022-07-17T01:10:20;14.90;71.50
9448;DHT22;4762;48.128;11.376;2022-07-17T01:12:22;14.80;71.70
9448;DHT22;4762;48.128;11.376;2022-07-17T01:14:25;14.80;72.30
9448;DHT22;4762;48.128;11.376;2022-07-17T01:16:27;14.70;72.60
9448;DHT22;4762;48.128;11.376;2022-07-17T01:18:29;14.60;73.00
9448;DHT22;4762;48.128;11.376;2022-07-17T01:20:31;14.60;72.90
9448;DHT22;4762;48.128;11.376;2022-07-17T01:22:41;14.60;73.30
9448;DHT22;4762;48.128;11.376;2022-07-17T01:24:43;14.60;73.10
9448;DHT22;4762;48.128;11.376;2022-07-17T01:26:46;14.60;73.10
9448;DHT22;4762;48.128;11.376;2022-07-17T01:28:47;14.60;73.00
9448;DHT22;4762;48.128;11.376;2022-07-17T01:30:50;14.50;73.70
9448;DHT22;4762;48.128;11.376;2022-07-17T01:32:52;14.40;73.00
9448;DHT22;4762;48.128;11.376;2022-07-17T01:34:56;14.50;73.60
9448;DHT22;4762;48.128;11.376;2022-07-17T01:36:58;14.40;73.40
9448;DHT22;4762;48.128;11.376;2022-07-17T01:39:00;14.50;73.70
9448;DHT22;4762;48.128;11.376;2022-07-17T01:41:02;14.30;74.30
9448;DHT22;4762;48.128;11.376;2022-07-17T01:43:05;14.20;74.80
9448;DHT22;4762;48.128;11.376;2022-07-17T01:45:07;14.20;74.60
9448;DHT22;4762;48.128;11.376;2022-07-17T01:47:11;14.20;74.50
9448;DHT22;4762;48.128;11.376;2022-07-17T01:49:12;14.10;74.70
9448;DHT22;4762;48.128;11.376;2022-07-17T01:51:15;14.10;75.30
9448;DHT22;4762;48.128;11.376;2022-07-17T01:53:18;14.00;75.20
9448;DHT22;4762;48.128;11.376;2022-07-17T01:55:20;13.90;75.50
9448;DHT22;4762;48.128;11.376;2022-07-17T01:57:22;14.10;74.40
9448;DHT22;4762;48.128;11.376;2022-07-17T01:59:24;13.90;75.00
9448;DHT22;4762;48.128;11.376;2022-07-17T02:01:27;13.90;74.60
9448;DHT22;4762;48.128;11.376;2022-07-17T02:03:29;13.80;74.90
9448;DHT22;4762;48.128;11.376;2022-07-17T02:05:31;13.80;75.00
9448;DHT22;4762;48.128;11.376;2022-07-17T02:07:34;13.80;75.50
9448;DHT22;4762;48.128;11.376;2022-07-17T02:09:36;13.60;76.20
9448;DHT22;4762;48.128;11.376;2022-07-17T02:11:38;13.60;75.80
9448;DHT22;4762;48.128;11.376;2022-07-17T02:13:41;13.60;75.60
9448;DHT22;4762;48.128;11.376;2022-07-17T02:15:43;13.60;76.20
9448;DHT22;4762;48.128;11.376;2022-07-17T02:17:45;13.60;76.00
9448;DHT22;4762;48.128;11.376;2022-07-17T02:19:47;13.60;76.00
9448;DHT22;4762;48.128;11.376;2022-07-17T02:21:50;13.50;75.90
9448;DHT22;4762;48.128;11.376;2022-07-17T02:23:52;13.60;75.70
9448;DHT22;4762;48.128;11.376;2022-07-17T02:25:55;13.50;76.20
9448;DHT22;4762;48.128;11.376;2022-07-17T02:27:57;13.50;76.10
9448;DHT22;4762;48.128;11.376;2022-07-17T02:30:15;13.40;76.40
9448;DHT22;4762;48.128;11.376;2022-07-17T02:32:16;13.30;77.00
9448;DHT22;4762;48.128;11.376;2022-07-17T02:34:19;13.30;76.80
9448;DHT22;4762;48.128;11.376;2022-07-17T02:36:21;13.40;76.80
9448;DHT22;4762;48.128;11.376;2022-07-17T02:38:24;13.20;76.40
9448;DHT22;4762;48.128;11.376;2022-07-17T02:40:26;13.20;77.10
9448;DHT22;4762;48.128;11.376;2022-07-17T02:42:28;13.10;77.20
9448;DHT22;4762;48.128;11.376;2022-07-17T02:44:30;13.20;77.30
9448;DHT22;4762;48.128;11.376;2022-07-17T02:46:33;13.20;77.00
9448;DHT22;4762;48.128;11.376;2022-07-17T02:48:35;13.40;76.50
9448;DHT22;4762;48.128;11.376;2022-07-17T02:50:38;13.30;76.50
9448;DHT22;4762;48.128;11.376;2022-07-17T02:52:40;13.40;76.40
9448;DHT22;4762;48.128;11.376;2022-07-17T02:54:43;13.30;76.00
9448;DHT22;4762;48.128;11.376;2022-07-17T02:56:45;13.20;76.30
9448;DHT22;4762;48.128;11.376;2022-07-17T02:58:48;13.30;76.10
9448;DHT22;4762;48.128;11.376;2022-07-17T03:00:51;13.20;76.40
9448;DHT22;4762;48.128;11.376;2022-07-17T03:02:53;13.20;76.30
9448;DHT22;4762;48.128;11.376;2022-07-17T03:04:57;13.20;77.20
9448;DHT22;4762;48.128;11.376;2022-07-17T03:06:59;13.20;77.00
9448;DHT22;4762;48.128;11.376;2022-07-17T03:09:02;13.20;76.70
9448;DHT22;4762;48.128;11.376;2022-07-17T03:11:04;13.10;77.20
9448;DHT22;4762;48.128;11.376;2022-07-17T03:13:07;13.20;77.10
9448;DHT22;4762;48.128;11.376;2022-07-17T03:15:12;13.20;77.40
9448;DHT22;4762;48.128;11.376;2022-07-17T03:17:15;13.20;76.80
9448;DHT22;4762;48.128;11.376;2022-07-17T03:19:18;13.20;77.10
9448;DHT22;4762;48.128;11.376;2022-07-17T03:21:20;13.00;77.50
9448;DHT22;4762;48.128;11.376;2022-07-17T03:23:22;12.90;78.20
9448;DHT22;4762;48.128;11.376;2022-07-17T03:25:24;12.90;78.10
9448;DHT22;4762;48.128;11.376;2022-07-17T03:27:27;12.80;78.10
9448;DHT22;4762;48.128;11.376;2022-07-17T03:29:29;12.80;78.60
9448;DHT22;4762;48.128;11.376;2022-07-17T03:31:31;12.70;78.80
9448;DHT22;4762;48.128;11.376;2022-07-17T03:33:34;12.60;79.40
9448;DHT22;4762;48.128;11.376;2022-07-17T03:35:36;12.60;79.10
9448;DHT22;4762;48.128;11.376;2022-07-17T03:37:38;12.50;79.30
9448;DHT22;4762;48.128;11.376;2022-07-17T03:39:40;12.50;79.40
9448;DHT22;4762;48.128;11.376;2022-07-17T03:41:43;12.60;79.50
9448;DHT22;4762;48.128;11.376;2022-07-17T03:43:45;12.60;79.30
9448;DHT22;4762;48.128;11.376;2022-07-17T03:45:48;12.40;79.30
9448;DHT22;4762;48.128;11.376;2022-07-17T03:47:50;12.40;79.60
9448;DHT22;4762;48.128;11.376;2022-07-17T03:49:52;12.50;79.30
9448;DHT22;4762;48.128;11.376;2022-07-17T03:51:55;12.50;79.20
9448;DHT22;4762;48.128;11.376;2022-07-17T03:53:59;12.50;79.10
9448;DHT22;4762;48.128;11.376;2022-07-17T03:56:01;12.60;79.40
9448;DHT22;4762;48.128;11.376;2022-07-17T03:58:03;12.70;79.10
9448;DHT22;4762;48.128;11.376;2022-07-17T04:00:06;12.60;79.40
9448;DHT22;4762;48.128;11.376;2022-07-17T04:02:10;12.20;79.70
9448;DHT22;4762;48.128;11.376;2022-07-17T04:04:13;12.30;79.90
9448;DHT22;4762;48.128;11.376;2022-07-17T04:06:15;12.50;79.80
9448;DHT22;4762;48.128;11.376;2022-07-17T04:08:17;12.60;79.70
9448;DHT22;4762;48.128;11.376;2022-07-17T04:10:20;12.70;78.60
9448;DHT22;4762;48.128;11.376;2022-07-17T04:12:24;12.90;78.30
9448;DHT22;4762;48.128;11.376;2022-07-17T04:14:26;12.80;78.50
9448;DHT22;4762;48.128;11.376;2022-07-17T04:16:29;12.80;78.50
9448;DHT22;4762;48.128;11.376;2022-07-17T04:18:32;12.90;78.00
9448;DHT22;4762;48.128;11.376;2022-07-17T04:20:35;13.00;78.30
9448;DHT22;4762;48.128;11.376;2022-07-17T04:22:38;12.90;78.30
9448;DHT22;4762;48.128;11.376;2022-07-17T04:24:40;13.00;78.00
9448;DHT22;4762;48.128;11.376;2022-07-17T04:26:42;13.00;78.20
9448;DHT22;4762;48.128;11.376;2022-07-17T04:28:44;13.00;78.70
9448;DHT22;4762;48.128;11.376;2022-07-17T04:30:47;13.00;78.80
9448;DHT22;4762;48.128;11.376;2022-07-17T04:32:49;13.10;78.50
9448;DHT22;4762;48.128;11.376;2022-07-17T04:34:52;13.20;77.60
9448;DHT22;4762;48.128;11.376;2022-07-17T04:36:55;13.30;78.20
9448;DHT22;4762;48.128;11.376;2022-07-17T04:38:57;13.30;77.90
9448;DHT22;4762;48.128;11.376;2022-07-17T04:40:59;13.40;77.80
9448;DHT22;4762;48.128;11.376;2022-07-17T04:43:02;13.40;77.90
9448;DHT22;4762;48.128;11.376;2022-07-17T04:45:05;13.50;77.70
9448;DHT22;4762;48.128;11.376;2022-07-17T04:47:07;13.50;77.90
9448;DHT22;4762;48.128;11.376;2022-07-17T04:49:10;13.50;76.80
9448;DHT22;4762;48.128;11.376;2022-07-17T04:51:12;13.70;76.40
9448;DHT22;4762;48.128;11.376;2022-07-17T04:53:14;13.60;76.40
9448;DHT22;4762;48.128;11.376;2022-07-17T04:55:17;13.70;76.30
9448;DHT22;4762;48.128;11.376;2022-07-17T04:57:19;13.80;76.60
9448;DHT22;4762;48.128;11.376;2022-07-17T04:59:21;13.90;76.30
9448;DHT22;4762;48.128;11.376;2022-07-17T05:01:24;14.00;76.50
9448;DHT22;4762;48.128;11.376;2022-07-17T05:03:26;14.00;76.10
9448;DHT22;4762;48.128;11.376;2022-07-17T05:05:28;14.10;75.90
9448;DHT22;4762;48.128;11.376;2022-07-17T05:07:31;14.10;75.60
9448;DHT22;4762;48.128;11.376;2022-07-17T05:09:34;14.20;75.00
9448;DHT22;4762;48.128;11.376;2022-07-17T05:11:36;14.30;75.20
9448;DHT22;4762;48.128;11.376;2022-07-17T05:13:38;14.50;74.60
9448;DHT22;4762;48.128;11.376;2022-07-17T05:15:41;14.60;74.20
9448;DHT22;4762;48.128;11.376;2022-07-17T05:17:45;14.70;74.20
9448;DHT22;4762;48.128;11.376;2022-07-17T05:19:47;14.70;74.00
9448;DHT22;4762;48.128;11.376;2022-07-17T05:21:49;14.90;73.60
9448;DHT22;4762;48.128;11.376;2022-07-17T05:23:52;15.00;73.60
9448;DHT22;4762;48.128;11.376;2022-07-17T05:25:56;15.10;73.10
9448;DHT22;4762;48.128;11.376;2022-07-17T05:27:59;15.20;72.50
9448;DHT22;4762;48.128;11.376;2022-07-17T05:30:01;15.30;72.90
9448;DHT22;4762;48.128;11.376;2022-07-17T05:32:04;15.40;72.30
9448;DHT22;4762;48.128;11.376;2022-07-17T05:34:06;15.60;70.60
9448;DHT22;4762;48.128;11.376;2022-07-17T05:36:08;15.90;70.40
9448;DHT22;4762;48.128;11.376;2022-07-17T05:38:11;16.50;70.20
9448;DHT22;4762;48.128;11.376;2022-07-17T05:40:13;17.20;67.80
9448;DHT22;4762;48.128;11.376;2022-07-17T05:42:16;17.60;65.80
9448;DHT22;4762;48.128;11.376;2022-07-17T05:44:19;18.20;66.50
9448;DHT22;4762;48.128;11.376;2022-07-17T05:46:21;18.90;64.20
9448;DHT22;4762;48.128;11.376;2022-07-17T05:48:25;19.50;63.20
9448;DHT22;4762;48.128;11.376;2022-07-17T05:50:27;19.90;62.50
9448;DHT22;4762;48.128;11.376;2022-07-17T05:52:29;19.70;60.10
9448;DHT22;4762;48.128;11.376;2022-07-17T05:54:32;19.90;61.80
9448;DHT22;4762;48.128;11.376;2022-07-17T05:56:34;20.20;60.40
9448;DHT22;4762;48.128;11.376;2022-07-17T05:58:37;20.20;60.40
9448;DHT22;4762;48.128;11.376;2022-07-17T06:00:41;20.20;60.40
9448;DHT22;4762;48.128;11.376;2022-07-17T06:02:44;20.60;59.90
9448;DHT22;4762;48.128;11.376;2022-07-17T06:04:46;21.20;58.30
9448;DHT22;4762;48.128;11.376;2022-07-17T06:06:50;21.40;58.00
9448;DHT22;4762;48.128;11.376;2022-07-17T06:08:52;21.50;58.00
9448;DHT22;4762;48.128;11.376;2022-07-17T06:10:55;22.00;59.00
9448;DHT22;4762;48.128;11.376;2022-07-17T06:12:57;22.00;55.80
9448;DHT22;4762;48.128;11.376;2022-07-17T06:14:59;21.90;57.60
9448;DHT22;4762;48.128;11.376;2022-07-17T06:17:02;22.30;56.50
9448;DHT22;4762;48.128;11.376;2022-07-17T06:19:04;22.60;55.20
9448;DHT22;4762;48.128;11.376;2022-07-17T06:21:06;22.10;56.20
9448;DHT22;4762;48.128;11.376;2022-07-17T06:23:09;22.30;55.70
9448;DHT22;4762;48.128;11.376;2022-07-17T06:25:12;22.40;56.60
9448;DHT22;4762;48.128;11.376;2022-07-17T06:27:14;22.60;55.90
9448;DHT22;4762;48.128;11.376;2022-07-17T06:29:16;22.90;54.80
9448;DHT22;4762;48.128;11.376;2022-07-17T06:31:19;23.70;52.60
9448;DHT22;4762;48.128;11.376;2022-07-17T06:33:22;23.50;54.60
9448;DHT22;4762;48.128;11.376;2022-07-17T06:35:24;23.40;54.20
9448;DHT22;4762;48.128;11.376;2022-07-17T06:37:26;23.70;52.30
9448;DHT22;4762;48.128;11.376;2022-07-17T06:39:29;24.60;52.80
9448;DHT22;4762;48.128;11.376;2022-07-17T06:41:31;25.00;50.50
9448;DHT22;4762;48.128;11.376;2022-07-17T06:43:33;25.40;50.00
9448;DHT22;4762;48.128;11.376;2022-07-17T06:45:38;25.00;51.20
9448;DHT22;4762;48.128;11.376;2022-07-17T06:47:40;25.30;49.70
9448;DHT22;4762;48.128;11.376;2022-07-17T06:49:44;23.80;52.50
9448;DHT22;4762;48.128;11.376;2022-07-17T06:51:46;24.30;51.20
9448;DHT22;4762;48.128;11.376;2022-07-17T06:53:48;24.90;50.50
9448;DHT22;4762;48.128;11.376;2022-07-17T06:55:51;25.10;50.00
9448;DHT22;4762;48.128;11.376;2022-07-17T06:57:53;25.40;49.30
9448;DHT22;4762;48.128;11.376;2022-07-17T06:59:55;25.70;49.50
9448;DHT22;4762;48.128;11.376;2022-07-17T07:01:57;24.90;49.00
9448;DHT22;4762;48.128;11.376;2022-07-17T07:04:00;25.70;49.30
9448;DHT22;4762;48.128;11.376;2022-07-17T07:06:02;25.90;49.00
9448;DHT22;4762;48.128;11.376;2022-07-17T07:08:05;26.40;47.60
9448;DHT22;4762;48.128;11.376;2022-07-17T07:10:08;26.90;47.30
9448;DHT22;4762;48.128;11.376;2022-07-17T07:12:10;26.20;46.70
9448;DHT22;4762;48.128;11.376;2022-07-17T07:14:13;26.70;45.80
9448;DHT22;4762;48.128;11.376;2022-07-17T07:16:15;26.40;47.20
9448;DHT22;4762;48.128;11.376;2022-07-17T07:18:18;26.40;46.40
9448;DHT22;4762;48.128;11.376;2022-07-17T07:20:20;26.80;46.70
9448;DHT22;4762;48.128;11.376;2022-07-17T07:22:22;27.30;45.30
9448;DHT22;4762;48.128;11.376;2022-07-17T07:24:25;26.90;44.90
9448;DHT22;4762;48.128;11.376;2022-07-17T07:26:29;27.20;45.30
9448;DHT22;4762;48.128;11.376;2022-07-17T07:28:31;27.30;45.20
9448;DHT22;4762;48.128;11.376;2022-07-17T07:30:33;27.00;44.70
9448;DHT22;4762;48.128;11.376;2022-07-17T07:32:36;27.30;44.20
9448;DHT22;4762;48.128;11.376;2022-07-17T07:34:38;27.70;42.90
9448;DHT22;4762;48.128;11.376;2022-07-17T07:36:40;27.30;43.40
9448;DHT22;4762;48.128;11.376;2022-07-17T07:38:43;27.30;44.70
9448;DHT22;4762;48.128;11.376;2022-07-17T07:40:46;27.20;43.90
9448;DHT22;4762;48.128;11.376;2022-07-17T07:42:48;28.00;43.00
9448;DHT22;4762;48.128;11.376;2022-07-17T07:44:51;28.60;42.50
9448;DHT22;4762;48.128;11.376;2022-07-17T07:46:54;28.10;42.40
9448;DHT22;4762;48.128;11.376;2022-07-17T07:48:57;28.70;42.10
9448;DHT22;4762;48.128;11.376;2022-07-17T07:50:59;27.80;42.80
9448;DHT22;4762;48.128;11.376;2022-07-17T07:53:02;28.80;42.50
9448;DHT22;4762;48.128;11.376;2022-07-17T07:55:05;28.90;40.40
9448;DHT22;4762;48.128;11.376;2022-07-17T07:57:07;29.00;41.10
9448;DHT22;4762;48.128;11.376;2022-07-17T07:59:10;28.70;40.70
9448;DHT22;4762;48.128;11.376;2022-07-17T08:01:12;29.30;39.80
9448;DHT22;4762;48.128;11.376;2022-07-17T08:03:14;28.50;41.20
9448;DHT22;4762;48.128;11.376;2022-07-17T08:05:16;28.70;40.90
9448;DHT22;4762;48.128;11.376;2022-07-17T08:07:19;28.50;40.70
9448;DHT22;4762;48.128;11.376;2022-07-17T08:09:21;29.10;38.80
9448;DHT22;4762;48.128;11.376;2022-07-17T08:11:24;29.40;39.60
9448;DHT22;4762;48.128;11.376;2022-07-17T08:13:27;29.30;38.80
9448;DHT22;4762;48.128;11.376;2022-07-17T08:15:30;28.30;40.30
9448;DHT22;4762;48.128;11.376;2022-07-17T08:17:32;28.90;39.00
9448;DHT22;4762;48.128;11.376;2022-07-17T08:19:36;28.30;38.90
9448;DHT22;4762;48.128;11.376;2022-07-17T08:21:39;28.40;38.90
9448;DHT22;4762;48.128;11.376;2022-07-17T08:23:41;29.50;37.80
9448;DHT22;4762;48.128;11.376;2022-07-17T08:25:43;29.70;37.80
9448;DHT22;4762;48.128;11.376;2022-07-17T08:27:46;30.10;36.90
9448;DHT22;4762;48.128;11.376;2022-07-17T08:29:49;31.00;36.70
9448;DHT22;4762;48.128;11.376;2022-07-17T08:31:51;30.40;36.10
9448;DHT22;4762;48.128;11.376;2022-07-17T08:33:53;29.50;37.10
9448;DHT22;4762;48.128;11.376;2022-07-17T08:35:56;30.20;36.90
9448;DHT22;4762;48.128;11.376;2022-07-17T08:37:59;30.00;37.70
9448;DHT22;4762;48.128;11.376;2022-07-17T08:40:02;30.50;35.70
9448;DHT22;4762;48.128;11.376;2022-07-17T08:42:05;30.40;36.00
9448;DHT22;4762;48.128;11.376;2022-07-17T08:44:08;30.70;35.60
9448;DHT22;4762;48.128;11.376;2022-07-17T08:46:10;31.10;35.30
9448;DHT22;4762;48.128;11.376;2022-07-17T08:48:13;31.40;35.70
9448;DHT22;4762;48.128;11.376;2022-07-17T08:50:15;30.30;37.20
9448;DHT22;4762;48.128;11.376;2022-07-17T08:52:17;31.10;35.50
9448;DHT22;4762;48.128;11.376;2022-07-17T08:54:19;28.80;37.10
9448;DHT22;4762;48.128;11.376;2022-07-17T08:56:22;29.80;36.70
9448;DHT22;4762;48.128;11.376;2022-07-17T08:58:25;30.60;36.20
9448;DHT22;4762;48.128;11.376;2022-07-17T09:00:28;30.20;36.90
9448;DHT22;4762;48.128;11.376;2022-07-17T09:02:30;30.90;35.70
9448;DHT22;4762;48.128;11.376;2022-07-17T09:04:32;30.20;36.70
9448;DHT22;4762;48.128;11.376;2022-07-17T09:06:35;30.50;36.00
9448;DHT22;4762;48.128;11.376;2022-07-17T09:08:37;30.20;36.20
9448;DHT22;4762;48.128;11.376;2022-07-17T09:10:41;30.60;35.60
9448;DHT22;4762;48.128;11.376;2022-07-17T09:12:42;30.50;35.40
9448;DHT22;4762;48.128;11.376;2022-07-17T09:14:44;30.60;36.10
9448;DHT22;4762;48.128;11.376;2022-07-17T09:16:49;30.90;35.30
9448;DHT22;4762;48.128;11.376;2022-07-17T09:18:52;30.90;35.50
9448;DHT22;4762;48.128;11.376;2022-07-17T09:20:55;31.00;35.60
9448;DHT22;4762;48.128;11.376;2022-07-17T09:23:04;31.10;34.80
9448;DHT22;4762;48.128;11.376;2022-07-17T09:25:07;31.40;34.30
9448;DHT22;4762;48.128;11.376;2022-07-17T09:27:09;32.00;34.10
9448;DHT22;4762;48.128;11.376;2022-07-17T09:29:12;30.10;35.60
9448;DHT22;4762;48.128;11.376;2022-07-17T09:31:23;31.30;35.30
9448;DHT22;4762;48.128;11.376;2022-07-17T09:33:20;31.00;35.50
9448;DHT22;4762;48.128;11.376;2022-07-17T09:35:22;32.20;34.00
9448;DHT22;4762;48.128;11.376;2022-07-17T09:37:25;32.40;32.80
9448;DHT22;4762;48.128;11.376;2022-07-17T09:39:34;32.00;32.80
9448;DHT22;4762;48.128;11.376;2022-07-17T09:41:36;31.60;33.40
9448;DHT22;4762;48.128;11.376;2022-07-17T09:43:39;31.90;32.70
9448;DHT22;4762;48.128;11.376;2022-07-17T09:45:41;32.20;32.10
9448;DHT22;4762;48.128;11.376;2022-07-17T09:47:49;31.40;33.40
9448;DHT22;4762;48.128;11.376;2022-07-17T09:50:13;31.30;34.30
9448;DHT22;4762;48.128;11.376;2022-07-17T09:52:21;32.10;32.20
9448;DHT22;4762;48.128;11.376;2022-07-17T09:54:46;32.80;31.60
9448;DHT22;4762;48.128;11.376;2022-07-17T09:57:05;32.50;31.60
9448;DHT22;4762;48.128;11.376;2022-07-17T09:59:19;33.60;31.70
9448;DHT22;4762;48.128;11.376;2022-07-17T10:01:24;33.10;31.40
9448;DHT22;4762;48.128;11.376;2022-07-17T10:03:32;33.60;31.10
9448;DHT22;4762;48.128;11.376;2022-07-17T10:05:35;32.80;31.50
9448;DHT22;4762;48.128;11.376;2022-07-17T10:07:42;32.20;32.10
9448;DHT22;4762;48.128;11.376;2022-07-17T10:09:45;31.70;33.30
9448;DHT22;4762;48.128;11.376;2022-07-17T10:11:47;31.80;31.90
9448;DHT22;4762;48.128;11.376;2022-07-17T10:13:50;32.40;32.10
9448;DHT22;4762;48.128;11.376;2022-07-17T10:15:51;31.00;33.90
9448;DHT22;4762;48.128;11.376;2022-07-17T10:18:03;31.90;33.20
9448;DHT22;4762;48.128;11.376;2022-07-17T10:20:05;32.30;32.50
9448;DHT22;4762;48.128;11.376;2022-07-17T10:22:08;32.50;32.30
9448;DHT22;4762;48.128;11.376;2022-07-17T10:24:10;33.20;31.50
9448;DHT22;4762;48.128;11.376;2022-07-17T10:26:13;33.00;31.10
9448;DHT22;4762;48.128;11.376;2022-07-17T10:28:15;33.60;31.90
9448;DHT22;4762;48.128;11.376;2022-07-17T10:30:24;33.50;31.70
9448;DHT22;4762;48.128;11.376;2022-07-17T10:32:26;33.80;31.40
9448;DHT22;4762;48.128;11.376;2022-07-17T10:34:40;33.50;30.40
9448;DHT22;4762;48.128;11.376;2022-07-17T10:36:42;33.70;30.30
9448;DHT22;4762;48.128;11.376;2022-07-17T10:38:43;34.50;30.00
9448;DHT22;4762;48.128;11.376;2022-07-17T10:40:45;33.50;30.30
9448;DHT22;4762;48.128;11.376;2022-07-17T10:45:13;32.90;30.90
9448;DHT22;4762;48.128;11.376;2022-07-17T10:47:14;33.00;30.30
9448;DHT22;4762;48.128;11.376;2022-07-17T10:49:17;34.00;29.70
9448;DHT22;4762;48.128;11.376;2022-07-17T10:51:19;33.60;29.20
9448;DHT22;4762;48.128;11.376;2022-07-17T11:08:00;34.50;28.70
9448;DHT22;4762;48.128;11.376;2022-07-17T11:10:03;32.00;31.00
9448;DHT22;4762;48.128;11.376;2022-07-17T11:12:06;33.20;30.00
9448;DHT22;4762;48.128;11.376;2022-07-17T11:14:15;33.50;29.30
9448;DHT22;4762;48.128;11.376;2022-07-17T11:16:24;34.20;28.60
9448;DHT22;4762;48.128;11.376;2022-07-17T11:18:25;34.20;28.60
9448;DHT22;4762;48.128;11.376;2022-07-17T11:20:28;33.90;29.20
9448;DHT22;4762;48.128;11.376;2022-07-17T11:22:30;34.60;28.70
9448;DHT22;4762;48.128;11.376;2022-07-17T11:24:42;34.30;28.30
9448;DHT22;4762;48.128;11.376;2022-07-17T11:26:43;33.80;29.30
9448;DHT22;4762;48.128;11.376;2022-07-17T11:28:47;34.00;29.10
9448;DHT22;4762;48.128;11.376;2022-07-17T11:30:49;34.90;27.30
9448;DHT22;4762;48.128;11.376;2022-07-17T11:32:52;36.00;27.20
9448;DHT22;4762;48.128;11.376;2022-07-17T11:34:54;35.40;27.30
9448;DHT22;4762;48.128;11.376;2022-07-17T11:36:59;34.60;28.00
9448;DHT22;4762;48.128;11.376;2022-07-17T11:39:05;34.40;28.80
9448;DHT22;4762;48.128;11.376;2022-07-17T11:41:04;35.00;27.70
9448;DHT22;4762;48.128;11.376;2022-07-17T11:43:06;34.80;28.00
9448;DHT22;4762;48.128;11.376;2022-07-17T11:45:09;35.30;27.60
9448;DHT22;4762;48.128;11.376;2022-07-17T11:47:12;34.50;27.70
9448;DHT22;4762;48.128;11.376;2022-07-17T11:49:24;33.50;28.90
9448;DHT22;4762;48.128;11.376;2022-07-17T11:51:33;34.20;27.60
9448;DHT22;4762;48.128;11.376;2022-07-17T11:53:35;34.70;26.90
9448;DHT22;4762;48.128;11.376;2022-07-17T11:55:38;35.10;26.40
9448;DHT22;4762;48.128;11.376;2022-07-17T11:57:42;34.50;27.00
9448;DHT22;4762;48.128;11.376;2022-07-17T11:59:44;33.70;27.80
9448;DHT22;4762;48.128;11.376;2022-07-17T12:01:46;35.10;26.10
9448;DHT22;4762;48.128;11.376;2022-07-17T12:03:57;34.20;27.40
9448;DHT22;4762;48.128;11.376;2022-07-17T12:05:58;34.10;27.80
9448;DHT22;4762;48.128;11.376;2022-07-17T12:08:01;34.40;27.40
9448;DHT22;4762;48.128;11.376;2022-07-17T12:10:12;34.10;28.10
9448;DHT22;4762;48.128;11.376;2022-07-17T12:12:19;35.20;26.60
9448;DHT22;4762;48.128;11.376;2022-07-17T12:14:21;34.90;26.40
9448;DHT22;4762;48.128;11.376;2022-07-17T12:16:26;32.80;27.30
9448;DHT22;4762;48.128;11.376;2022-07-17T12:18:28;32.50;28.80
9448;DHT22;4762;48.128;11.376;2022-07-17T12:20:43;33.60;28.10
9448;DHT22;4762;48.128;11.376;2022-07-17T12:22:47;34.30;28.20
9448;DHT22;4762;48.128;11.376;2022-07-17T12:24:49;34.10;27.70
9448;DHT22;4762;48.128;11.376;2022-07-17T12:26:51;34.40;27.70
9448;DHT22;4762;48.128;11.376;2022-07-17T12:28:54;34.00;27.60
9448;DHT22;4762;48.128;11.376;2022-07-17T12:30:56;34.30;27.60
9448;DHT22;4762;48.128;11.376;2022-07-17T12:32:59;34.70;26.20
9448;DHT22;4762;48.128;11.376;2022-07-17T12:35:01;34.30;28.10
9448;DHT22;4762;48.128;11.376;2022-07-17T12:37:04;34.00;28.00
9448;DHT22;4762;48.128;11.376;2022-07-17T12:39:06;34.60;26.80
9448;DHT22;4762;48.128;11.376;2022-07-17T12:41:08;34.20;28.00
9448;DHT22;4762;48.128;11.376;2022-07-17T12:43:10;33.80;28.10
9448;DHT22;4762;48.128;11.376;2022-07-17T12:45:13;34.40;27.70
9448;DHT22;4762;48.128;11.376;2022-07-17T12:47:15;34.00;27.40
9448;DHT22;4762;48.128;11.376;2022-07-17T12:49:17;34.30;28.80
9448;DHT22;4762;48.128;11.376;2022-07-17T12:51:19;34.70;26.20
9448;DHT22;4762;48.128;11.376;2022-07-17T12:53:22;34.60;27.40
9448;DHT22;4762;48.128;11.376;2022-07-17T12:55:24;35.20;26.90
9448;DHT22;4762;48.128;11.376;2022-07-17T12:57:26;35.10;25.90
9448;DHT22;4762;48.128;11.376;2022-07-17T12:59:29;35.50;25.60
9448;DHT22;4762;48.128;11.376;2022-07-17T13:01:33;34.50;28.00
9448;DHT22;4762;48.128;11.376;2022-07-17T13:03:36;34.80;26.00
9448;DHT22;4762;48.128;11.376;2022-07-17T13:05:37;35.10;25.70
9448;DHT22;4762;48.128;11.376;2022-07-17T13:12:41;35.30;25.20
9448;DHT22;4762;48.128;11.376;2022-07-17T13:14:44;35.00;25.40
9448;DHT22;4762;48.128;11.376;2022-07-17T13:16:46;34.60;26.20
9448;DHT22;4762;48.128;11.376;2022-07-17T13:18:48;35.50;26.20
9448;DHT22;4762;48.128;11.376;2022-07-17T13:20:50;35.80;25.70
9448;DHT22;4762;48.128;11.376;2022-07-17T13:22:53;35.80;25.50
9448;DHT22;4762;48.128;11.376;2022-07-17T13:24:55;34.80;26.20
9448;DHT22;4762;48.128;11.376;2022-07-17T13:26:57;35.10;25.90
9448;DHT22;4762;48.128;11.376;2022-07-17T13:29:00;35.00;26.20
9448;DHT22;4762;48.128;11.376;2022-07-17T13:31:02;35.20;25.60
9448;DHT22;4762;48.128;11.376;2022-07-17T13:33:05;35.40;25.00